Time;durP1;ratioP1;P1;durP2;ratioP2;P2;SDS_P1;SDS_P2;PMS_P1;PMS_P2;Temp;Humidity;BMP_temperature;BMP_pressure;BME280_temperature;BME280_humidity;BME280_pressure;Samples;Min_cycle;Max_cycle;Signal;HPM_P1;HPM_P2
2022/08/29 00:01:12;;;;;;;9.03;7.77;;;;;;;;;;4892770;29;20227;-42
2022/08/29 00:03:38;;;;;;;9.30;8.40;;;;;;;;;;4899081;29;20176;-43
2022/08/29 00:06:04;;;;;;;10.83;8.87;;;;;;;;;;4903199;29;20196;-42
2022/08/29 00:08:30;;;;;;;8.30;7.60;;;;;;;;;;4900227;28;20180;-42
2022/08/29 00:10:56;;;;;;;8.83;7.90;;;;;;;;;;4902201;29;21109;-42
2022/08/29 00:13:23;;;;;;;7.80;7.10;;;;;;;;;;4899611;29;20183;-43
2022/08/29 00:15:49;;;;;;;8.13;7.27;;;;;;;;;;4903229;29;20279;-42
2022/08/29 00:18:16;;;;;;;8.17;7.07;;;;;;;;;;4900002;29;20199;-43
2022/08/29 00:20:42;;;;;;;13.80;7.00;;;;;;;;;;4895761;29;20180;-41
2022/08/29 00:23:09;;;;;;;9.70;7.27;;;;;;;;;;4897849;29;20301;-43
2022/08/29 00:25:35;;;;;;;8.33;7.23;;;;;;;;;;4899827;29;20180;-43
2022/08/29 00:28:01;;;;;;;10.60;6.90;;;;;;;;;;4897306;29;20665;-43
2022/08/29 00:30:27;;;;;;;9.87;8.87;;;;;;;;;;4897769;29;20835;-41
2022/08/29 00:32:53;;;;;;;9.27;8.10;;;;;;;;;;4897627;29;20531;-42
2022/08/29 00:35:22;;;;;;;9.73;8.70;;;;;;;;;;4897751;29;21010;-43
2022/08/29 00:37:50;;;;;;;10.43;9.40;;;;;;;;;;4894668;29;20355;-43
2022/08/29 00:40:18;;;;;;;9.83;8.83;;;;;;;;;;4894583;29;20188;-42
2022/08/29 00:42:44;;;;;;;8.57;7.87;;;;;;;;;;4895238;29;20188;-43
2022/08/29 00:45:12;;;;;;;9.67;8.20;;;;;;;;;;4892887;29;20385;-43
2022/08/29 00:47:44;;;;;;;9.27;7.97;;;;;;;;;;4896752;29;20839;-42
2022/08/29 00:50:23;;;;;;;8.77;7.87;;;;;;;;;;4890783;28;20689;-43
2022/08/29 00:52:49;;;;;;;9.43;8.00;;;;;;;;;;4895639;29;20262;-43
2022/08/29 00:55:20;;;;;;;12.17;7.43;;;;;;;;;;4896197;29;20411;-42
2022/08/29 00:57:48;;;;;;;8.03;7.23;;;;;;;;;;4890572;29;20758;-41
2022/08/29 01:00:15;;;;;;;8.43;6.57;;;;;;;;;;4888996;29;20330;-43
2022/08/29 01:02:41;;;;;;;7.50;6.47;;;;;;;;;;4895691;29;20339;-42
2022/08/29 01:05:09;;;;;;;7.70;6.90;;;;;;;;;;4895565;29;21907;-43
2022/08/29 01:07:35;;;;;;;7.57;6.77;;;;;;;;;;4898983;29;20287;-42
2022/08/29 01:10:02;;;;;;;7.00;6.30;;;;;;;;;;4896244;29;20204;-43
2022/08/29 01:12:28;;;;;;;10.07;8.23;;;;;;;;;;4895396;29;20870;-40
2022/08/29 01:14:55;;;;;;;9.50;7.50;;;;;;;;;;4891936;28;21292;-43
2022/08/29 01:17:26;;;;;;;10.23;9.13;;;;;;;;;;4899273;29;20172;-42
2022/08/29 01:19:56;;;;;;;9.53;8.43;;;;;;;;;;4900553;29;20915;-43
2022/08/29 01:22:28;;;;;;;11.10;9.63;;;;;;;;;;4899875;28;20184;-43
2022/08/29 01:24:54;;;;;;;10.53;9.53;;;;;;;;;;4894087;29;20591;-42
2022/08/29 01:27:22;;;;;;;12.80;9.67;;;;;;;;;;4897153;29;20180;-42
2022/08/29 01:29:48;;;;;;;12.13;10.03;;;;;;;;;;4898182;29;20503;-43
2022/08/29 01:32:15;;;;;;;11.20;9.67;;;;;;;;;;4899053;29;20186;-43
2022/08/29 01:34:41;;;;;;;11.83;10.50;;;;;;;;;;4892736;29;20195;-43
2022/08/29 01:37:09;;;;;;;11.07;9.93;;;;;;;;;;4892206;29;20504;-42
2022/08/29 01:39:37;;;;;;;14.20;10.43;;;;;;;;;;4892859;29;20509;-43
2022/08/29 01:42:05;;;;;;;11.73;10.63;;;;;;;;;;4894911;29;21305;-42
2022/08/29 01:44:31;;;;;;;10.77;9.67;;;;;;;;;;4892061;29;20180;-42
2022/08/29 01:46:59;;;;;;;10.87;9.87;;;;;;;;;;4891758;29;20681;-42
2022/08/29 01:49:26;;;;;;;11.20;10.13;;;;;;;;;;4894757;29;20372;-42
2022/08/29 01:51:52;;;;;;;13.37;11.97;;;;;;;;;;4896864;29;20271;-41
2022/08/29 01:54:19;;;;;;;12.30;10.77;;;;;;;;;;4895544;29;20566;-43
2022/08/29 01:56:47;;;;;;;13.10;11.77;;;;;;;;;;4891167;29;20286;-43
2022/08/29 01:59:15;;;;;;;12.90;11.60;;;;;;;;;;4889926;29;20188;-43
2022/08/29 02:01:47;;;;;;;11.77;10.57;;;;;;;;;;4890196;29;20649;-43
2022/08/29 02:04:13;;;;;;;11.30;10.20;;;;;;;;;;4893353;29;20183;-43
2022/08/29 02:06:40;;;;;;;16.07;14.40;;;;;;;;;;4895506;29;20172;-42
2022/08/29 02:09:06;;;;;;;17.63;14.67;;;;;;;;;;4894156;29;20958;-44
2022/08/29 02:11:34;;;;;;;15.53;13.83;;;;;;;;;;4893736;29;20287;-43
2022/08/29 02:14:01;;;;;;;15.10;13.50;;;;;;;;;;4894892;29;20592;-43
2022/08/29 02:16:28;;;;;;;13.73;12.33;;;;;;;;;;4894647;29;20184;-43
2022/08/29 02:18:55;;;;;;;14.03;12.33;;;;;;;;;;4893748;29;20294;-42
2022/08/29 02:21:22;;;;;;;17.23;12.50;;;;;;;;;;4890997;29;20187;-43
2022/08/29 02:23:49;;;;;;;14.47;11.90;;;;;;;;;;4891774;29;20275;-42
2022/08/29 02:26:16;;;;;;;12.57;11.27;;;;;;;;;;4895428;29;20172;-43
2022/08/29 02:28:42;;;;;;;12.60;11.30;;;;;;;;;;4894850;29;20504;-43
2022/08/29 02:31:08;;;;;;;13.17;11.77;;;;;;;;;;4890262;29;20266;-42
2022/08/29 02:33:36;;;;;;;15.57;13.00;;;;;;;;;;4887763;29;20206;-43
2022/08/29 02:36:02;;;;;;;15.33;13.87;;;;;;;;;;4891350;29;20252;-42
2022/08/29 02:38:28;;;;;;;16.53;12.80;;;;;;;;;;4892528;29;21257;-42
2022/08/29 02:40:55;;;;;;;13.17;11.03;;;;;;;;;;4893672;29;20183;-42
2022/08/29 02:43:22;;;;;;;13.57;12.23;;;;;;;;;;4889174;29;20489;-42
2022/08/29 02:45:48;;;;;;;15.13;13.53;;;;;;;;;;4891410;29;20594;-43
2022/08/29 02:48:15;;;;;;;16.53;14.77;;;;;;;;;;4892872;29;20600;-43
2022/08/29 02:50:42;;;;;;;14.37;12.87;;;;;;;;;;4892605;29;20514;-42
2022/08/29 02:53:10;;;;;;;14.67;13.17;;;;;;;;;;4889801;29;20718;-43
2022/08/29 02:55:37;;;;;;;16.90;15.33;;;;;;;;;;4894384;29;20210;-43
2022/08/29 02:58:04;;;;;;;15.47;13.90;;;;;;;;;;4893166;29;20838;-42
2022/08/29 03:00:31;;;;;;;14.73;13.23;;;;;;;;;;4890147;28;21131;-41
2022/08/29 03:02:57;;;;;;;15.77;14.17;;;;;;;;;;4887668;29;20438;-43
2022/08/29 03:05:26;;;;;;;19.47;15.80;;;;;;;;;;4894390;28;20705;-42
2022/08/29 03:07:52;;;;;;;15.30;13.77;;;;;;;;;;4891747;29;20663;-43
2022/08/29 03:10:19;;;;;;;16.17;13.67;;;;;;;;;;4893223;29;20196;-43
2022/08/29 03:12:45;;;;;;;14.70;13.20;;;;;;;;;;4891326;29;20304;-43
2022/08/29 03:15:12;;;;;;;17.23;15.33;;;;;;;;;;4887017;29;20200;-43
2022/08/29 03:17:38;;;;;;;16.67;15.07;;;;;;;;;;4893312;29;20172;-43
2022/08/29 03:20:05;;;;;;;16.77;15.17;;;;;;;;;;4893995;28;20696;-43
2022/08/29 03:22:33;;;;;;;16.53;14.93;;;;;;;;;;4890346;29;20483;-43
2022/08/29 03:25:01;;;;;;;15.10;13.70;;;;;;;;;;4888764;29;20817;-42
2022/08/29 03:27:27;;;;;;;16.37;14.67;;;;;;;;;;4890541;29;20534;-43
2022/08/29 03:29:53;;;;;;;16.40;14.70;;;;;;;;;;4892812;29;21023;-43
2022/08/29 03:32:20;;;;;;;17.43;15.73;;;;;;;;;;4889882;29;20184;-43
2022/08/29 03:34:46;;;;;;;17.43;15.73;;;;;;;;;;4893778;29;20173;-41
2022/08/29 03:37:12;;;;;;;16.10;14.40;;;;;;;;;;4889416;29;20178;-43
2022/08/29 03:39:38;;;;;;;16.90;15.20;;;;;;;;;;4886195;29;20347;-43
2022/08/29 03:42:05;;;;;;;18.50;15.93;;;;;;;;;;4891335;29;20203;-42
2022/08/29 03:44:35;;;;;;;17.73;15.77;;;;;;;;;;4890903;29;20872;-42
2022/08/29 03:47:01;;;;;;;15.53;13.93;;;;;;;;;;4890743;29;21110;-43
2022/08/29 03:49:28;;;;;;;16.23;14.20;;;;;;;;;;4885529;29;20608;-41
2022/08/29 03:51:54;;;;;;;15.17;13.57;;;;;;;;;;4892455;29;20177;-42
2022/08/29 03:54:20;;;;;;;15.93;14.33;;;;;;;;;;4896282;29;20513;-43
2022/08/29 03:56:46;;;;;;;17.87;15.87;;;;;;;;;;4892535;29;20788;-42
2022/08/29 03:59:12;;;;;;;16.67;14.70;;;;;;;;;;4890596;29;20484;-41
2022/08/29 04:01:39;;;;;;;16.37;14.67;;;;;;;;;;4892182;29;20835;-42
2022/08/29 04:04:05;;;;;;;20.07;16.00;;;;;;;;;;4897442;29;20695;-43
2022/08/29 04:06:35;;;;;;;16.10;14.57;;;;;;;;;;4900012;29;20949;-43
2022/08/29 04:09:01;;;;;;;15.63;13.97;;;;;;;;;;4897427;29;20320;-41
2022/08/29 04:11:28;;;;;;;22.10;15.07;;;;;;;;;;4898401;29;20188;-43
2022/08/29 04:13:54;;;;;;;18.87;16.77;;;;;;;;;;4897930;29;20176;-43
2022/08/29 04:16:22;;;;;;;22.93;18.27;;;;;;;;;;4890550;29;20243;-40
2022/08/29 04:18:48;;;;;;;30.07;18.20;;;;;;;;;;4889695;28;20211;-42
2022/08/29 04:21:14;;;;;;;17.80;15.57;;;;;;;;;;4894332;29;20176;-42
2022/08/29 04:23:41;;;;;;;21.87;17.57;;;;;;;;;;4895966;29;20424;-43
2022/08/29 04:26:17;;;;;;;25.03;17.53;;;;;;;;;;4885965;29;20367;-43
2022/08/29 04:28:44;;;;;;;16.23;14.60;;;;;;;;;;4893160;29;20176;-43
2022/08/29 04:31:18;;;;;;;16.13;14.57;;;;;;;;;;4892377;29;20235;-42
2022/08/29 04:33:45;;;;;;;20.23;14.43;;;;;;;;;;4892393;29;20172;-41
2022/08/29 04:36:11;;;;;;;15.27;13.77;;;;;;;;;;4889626;29;20827;-43
2022/08/29 04:38:37;;;;;;;17.90;15.70;;;;;;;;;;4890501;29;20173;-43
2022/08/29 04:41:05;;;;;;;21.70;14.97;;;;;;;;;;4892037;29;20176;-43
2022/08/29 04:43:31;;;;;;;20.00;16.50;;;;;;;;;;4894445;29;20183;-41
2022/08/29 04:45:57;;;;;;;18.53;16.63;;;;;;;;;;4887778;29;20436;-43
2022/08/29 04:48:23;;;;;;;18.97;17.17;;;;;;;;;;4889204;29;20504;-42
2022/08/29 04:50:59;;;;;;;18.03;15.50;;;;;;;;;;4890365;29;20711;-43
2022/08/29 04:53:26;;;;;;;16.20;14.70;;;;;;;;;;4894791;29;20633;-43
2022/08/29 04:56:03;;;;;;;19.87;17.40;;;;;;;;;;4896810;29;20232;-42
2022/08/29 04:58:30;;;;;;;21.17;19.03;;;;;;;;;;4898013;29;20420;-41
2022/08/29 05:00:56;;;;;;;17.87;16.07;;;;;;;;;;4890268;28;20234;-43
2022/08/29 05:03:23;;;;;;;21.40;16.80;;;;;;;;;;4891129;29;20557;-41
2022/08/29 05:06:00;;;;;;;18.13;15.77;;;;;;;;;;4894105;29;20642;-42
2022/08/29 05:08:27;;;;;;;19.30;16.90;;;;;;;;;;4898403;29;20279;-41
2022/08/29 05:10:53;;;;;;;18.33;16.53;;;;;;;;;;4893151;29;20399;-43
2022/08/29 05:13:19;;;;;;;17.43;15.63;;;;;;;;;;4892923;29;20463;-42
2022/08/29 05:15:45;;;;;;;19.17;17.17;;;;;;;;;;4890711;29;20428;-43
2022/08/29 05:18:16;;;;;;;15.47;13.97;;;;;;;;;;4890778;29;20179;-42
2022/08/29 05:20:44;;;;;;;16.83;15.03;;;;;;;;;;4894797;29;20184;-42
2022/08/29 05:23:10;;;;;;;20.23;18.23;;;;;;;;;;4899092;29;20609;-42
2022/08/29 05:25:37;;;;;;;18.67;16.47;;;;;;;;;;4888421;29;20657;-42
2022/08/29 05:28:03;;;;;;;19.13;17.23;;;;;;;;;;4893647;28;20176;-41
2022/08/29 05:30:30;;;;;;;19.37;17.33;;;;;;;;;;4888961;29;20207;-42
2022/08/29 05:32:56;;;;;;;20.77;17.90;;;;;;;;;;4906612;28;20261;-43
2022/08/29 05:35:22;;;;;;;20.10;17.97;;;;;;;;;;4887984;29;20176;-43
2022/08/29 05:37:49;;;;;;;21.63;17.80;;;;;;;;;;4895952;29;20206;-43
2022/08/29 05:40:15;;;;;;;13.80;11.17;;;;;;;;;;4898253;29;20267;-43
2022/08/29 05:42:41;;;;;;;12.53;11.23;;;;;;;;;;4895565;29;20456;-42
2022/08/29 05:45:08;;;;;;;12.47;9.33;;;;;;;;;;4894568;29;20267;-43
2022/08/29 05:47:34;;;;;;;8.77;7.23;;;;;;;;;;4897691;29;20476;-42
2022/08/29 05:50:00;;;;;;;9.77;7.03;;;;;;;;;;4899537;29;21033;-43
2022/08/29 05:52:27;;;;;;;9.03;7.70;;;;;;;;;;4896724;29;20169;-41
2022/08/29 05:54:53;;;;;;;7.77;5.87;;;;;;;;;;4894319;29;20219;-43
2022/08/29 05:57:21;;;;;;;5.30;4.70;;;;;;;;;;4899142;29;20183;-43
2022/08/29 05:59:48;;;;;;;6.80;5.50;;;;;;;;;;4898452;29;20195;-43
2022/08/29 06:02:14;;;;;;;8.90;5.20;;;;;;;;;;4898120;29;20679;-43
2022/08/29 06:04:40;;;;;;;6.80;5.50;;;;;;;;;;4896560;29;20184;-41
2022/08/29 06:07:07;;;;;;;7.03;5.60;;;;;;;;;;4896846;29;20398;-40
2022/08/29 06:09:34;;;;;;;10.60;5.20;;;;;;;;;;4898139;29;20266;-42
2022/08/29 06:12:02;;;;;;;8.93;5.80;;;;;;;;;;4899481;29;20176;-42
2022/08/29 06:14:28;;;;;;;10.27;5.67;;;;;;;;;;4894997;29;20776;-43
2022/08/29 06:16:54;;;;;;;15.37;9.87;;;;;;;;;;4895604;29;20200;-43
2022/08/29 06:19:20;;;;;;;13.33;10.30;;;;;;;;;;4898612;29;20491;-42
2022/08/29 06:21:47;;;;;;;13.60;9.03;;;;;;;;;;4898792;29;20558;-41
2022/08/29 06:24:13;;;;;;;20.53;12.10;;;;;;;;;;4895369;29;20242;-42
2022/08/29 06:26:39;;;;;;;19.47;13.00;;;;;;;;;;4896411;29;20191;-43
2022/08/29 06:29:08;;;;;;;16.03;11.87;;;;;;;;;;4896553;28;20451;-43
2022/08/29 06:31:34;;;;;;;13.87;10.33;;;;;;;;;;4897446;29;20184;-42
2022/08/29 06:34:01;;;;;;;18.97;12.17;;;;;;;;;;4897302;29;20453;-42
2022/08/29 06:36:28;;;;;;;18.57;13.47;;;;;;;;;;4895821;29;20263;-43
2022/08/29 06:38:58;;;;;;;12.13;10.60;;;;;;;;;;4895758;29;20177;-43
2022/08/29 06:41:24;;;;;;;15.40;12.80;;;;;;;;;;4895698;29;20621;-41
2022/08/29 06:43:51;;;;;;;14.20;11.23;;;;;;;;;;4891748;29;20207;-42
2022/08/29 06:46:25;;;;;;;10.77;9.67;;;;;;;;;;4896972;28;20188;-43
2022/08/29 06:48:51;;;;;;;14.13;11.23;;;;;;;;;;4900664;29;20248;-43
2022/08/29 06:51:18;;;;;;;10.97;9.37;;;;;;;;;;4894547;29;20528;-43
2022/08/29 06:53:44;;;;;;;10.33;8.80;;;;;;;;;;4895978;29;20595;-43
2022/08/29 06:56:10;;;;;;;8.87;7.07;;;;;;;;;;4896149;29;20180;-43
2022/08/29 06:58:36;;;;;;;6.60;5.50;;;;;;;;;;4899143;29;20437;-43
2022/08/29 07:01:09;;;;;;;12.13;6.20;;;;;;;;;;4897482;29;20254;-41
2022/08/29 07:03:35;;;;;;;8.63;5.30;;;;;;;;;;4891028;29;20179;-42
2022/08/29 07:06:01;;;;;;;12.80;6.10;;;;;;;;;;4910967;28;20195;-42
2022/08/29 07:08:27;;;;;;;11.23;7.60;;;;;;;;;;4900012;28;20184;-43
2022/08/29 07:10:53;;;;;;;12.73;10.67;;;;;;;;;;4895615;29;20650;-42
2022/08/29 07:13:19;;;;;;;15.93;12.67;;;;;;;;;;4894507;29;20184;-43
2022/08/29 07:15:45;;;;;;;15.90;13.47;;;;;;;;;;4896778;29;20204;-43
2022/08/29 07:18:12;;;;;;;17.10;14.20;;;;;;;;;;4897170;29;20657;-43
2022/08/29 07:20:38;;;;;;;22.40;17.47;;;;;;;;;;4896645;29;20463;-43
2022/08/29 07:23:05;;;;;;;19.60;16.07;;;;;;;;;;4893690;29;20732;-42
2022/08/29 07:25:31;;;;;;;19.33;16.43;;;;;;;;;;4895493;29;20191;-41
2022/08/29 07:27:57;;;;;;;19.93;17.10;;;;;;;;;;4896521;29;20176;-43
2022/08/29 07:30:24;;;;;;;19.87;15.83;;;;;;;;;;4892189;29;20228;-42
2022/08/29 07:32:50;;;;;;;16.57;13.20;;;;;;;;;;4895288;29;20188;-43
2022/08/29 07:35:17;;;;;;;14.80;10.97;;;;;;;;;;4897364;29;20180;-43
2022/08/29 07:37:43;;;;;;;12.13;9.97;;;;;;;;;;4901261;29;20232;-43
2022/08/29 07:40:10;;;;;;;11.27;10.17;;;;;;;;;;4902458;29;20664;-42
2022/08/29 07:42:37;;;;;;;10.90;9.80;;;;;;;;;;4899642;29;20491;-42
2022/08/29 07:45:04;;;;;;;10.53;9.43;;;;;;;;;;4899185;29;20192;-42
2022/08/29 07:47:31;;;;;;;13.57;9.80;;;;;;;;;;4898387;29;20184;-43
2022/08/29 07:49:58;;;;;;;16.47;10.17;;;;;;;;;;4898548;29;20597;-43
2022/08/29 07:52:24;;;;;;;10.27;9.20;;;;;;;;;;4889055;29;20211;-43
2022/08/29 07:54:51;;;;;;;13.60;11.17;;;;;;;;;;4891521;28;20180;-44
2022/08/29 07:57:17;;;;;;;14.33;11.10;;;;;;;;;;4891861;28;20282;-43
2022/08/29 07:59:43;;;;;;;13.90;11.33;;;;;;;;;;4893009;29;20192;-44
2022/08/29 08:02:09;;;;;;;14.50;11.40;;;;;;;;;;4891811;29;20372;-43
2022/08/29 08:04:36;;;;;;;14.50;12.70;;;;;;;;;;4891239;29;20234;-43
2022/08/29 08:07:02;;;;;;;14.47;12.63;;;;;;;;;;4893930;29;20534;-43
2022/08/29 08:09:28;;;;;;;15.77;13.23;;;;;;;;;;4892722;29;20887;-43
2022/08/29 08:11:54;;;;;;;16.63;13.90;;;;;;;;;;4893172;29;20228;-42
2022/08/29 08:14:20;;;;;;;18.73;14.33;;;;;;;;;;4891809;29;20180;-43
2022/08/29 08:16:46;;;;;;;16.80;15.00;;;;;;;;;;4888469;29;20180;-43
2022/08/29 08:19:13;;;;;;;17.67;14.73;;;;;;;;;;4887572;29;20445;-43
2022/08/29 08:21:39;;;;;;;20.67;16.30;;;;;;;;;;4888868;29;20728;-43
2022/08/29 08:24:06;;;;;;;21.33;16.43;;;;;;;;;;4886313;29;20299;-43
2022/08/29 08:26:32;;;;;;;19.73;17.63;;;;;;;;;;4889554;29;20184;-42
2022/08/29 08:28:58;;;;;;;23.13;17.73;;;;;;;;;;4888110;29;20192;-43
2022/08/29 08:31:25;;;;;;;20.30;17.97;;;;;;;;;;4893912;29;20179;-42
2022/08/29 08:33:51;;;;;;;17.47;15.67;;;;;;;;;;4894834;29;20176;-43
2022/08/29 08:36:25;;;;;;;19.23;17.33;;;;;;;;;;4901057;29;20404;-44
2022/08/29 08:38:52;;;;;;;18.50;16.47;;;;;;;;;;4894910;29;20460;-41
2022/08/29 08:41:30;;;;;;;21.70;17.97;;;;;;;;;;4896648;29;21172;-43
2022/08/29 08:43:58;;;;;;;16.43;14.73;;;;;;;;;;4897526;29;20180;-43
2022/08/29 08:46:30;;;;;;;16.27;14.67;;;;;;;;;;4898087;29;20608;-43
2022/08/29 08:49:00;;;;;;;17.33;15.10;;;;;;;;;;4894708;28;20180;-43
2022/08/29 08:51:28;;;;;;;16.57;13.90;;;;;;;;;;4896762;29;20489;-41
2022/08/29 08:53:56;;;;;;;17.80;16.00;;;;;;;;;;4896858;29;20235;-43
2022/08/29 08:56:26;;;;;;;17.07;15.27;;;;;;;;;;4900205;29;20893;-43
2022/08/29 08:58:57;;;;;;;19.00;15.33;;;;;;;;;;4899057;29;20239;-43
2022/08/29 09:01:30;;;;;;;18.13;16.20;;;;;;;;;;4891506;29;20563;-42
2022/08/29 09:04:02;;;;;;;18.60;15.80;;;;;;;;;;4891667;29;20941;-42
2022/08/29 09:06:36;;;;;;;17.33;14.90;;;;;;;;;;4897772;29;20236;-43
2022/08/29 09:09:21;;;;;;;17.60;12.00;;;;;;;;;;4900813;29;20511;-43
2022/08/29 09:11:47;;;;;;;13.63;12.33;;;;;;;;;;4897708;29;20299;-43
2022/08/29 09:14:25;;;;;;;16.50;13.03;;;;;;;;;;4896317;28;20184;-43
2022/08/29 09:16:54;;;;;;;11.73;10.53;;;;;;;;;;4894863;29;20810;-40
2022/08/29 09:19:20;;;;;;;13.67;12.03;;;;;;;;;;4898886;29;20200;-40
2022/08/29 09:21:52;;;;;;;15.57;10.93;;;;;;;;;;4894571;29;20578;-39
2022/08/29 09:24:28;;;;;;;15.03;11.73;;;;;;;;;;4893885;29;20749;-41
2022/08/29 09:26:55;;;;;;;18.23;13.00;;;;;;;;;;4895892;29;20192;-39
2022/08/29 09:29:23;;;;;;;17.20;12.23;;;;;;;;;;4897069;29;20495;-40
2022/08/29 09:32:04;;;;;;;13.20;11.57;;;;;;;;;;4896742;29;20564;-41
2022/08/29 09:34:35;;;;;;;11.87;10.57;;;;;;;;;;4895258;29;20452;-41
2022/08/29 09:37:01;;;;;;;12.80;9.90;;;;;;;;;;4895871;29;20187;-41
2022/08/29 09:39:31;;;;;;;13.23;11.93;;;;;;;;;;4898405;29;20789;-41
2022/08/29 09:42:13;;;;;;;11.73;10.43;;;;;;;;;;4895784;29;20192;-40
2022/08/29 09:44:40;;;;;;;11.93;10.37;;;;;;;;;;4895567;29;20187;-41
2022/08/29 09:47:11;;;;;;;11.17;9.93;;;;;;;;;;4896969;29;20597;-42
2022/08/29 09:49:38;;;;;;;10.67;9.53;;;;;;;;;;4895265;29;20200;-41
2022/08/29 09:52:10;;;;;;;10.23;7.97;;;;;;;;;;4895376;29;20176;-42
2022/08/29 09:54:37;;;;;;;11.53;8.07;;;;;;;;;;4894288;29;20303;-42
2022/08/29 09:57:18;;;;;;;12.70;8.73;;;;;;;;;;4889257;29;20971;-42
2022/08/29 09:59:45;;;;;;;22.07;9.33;;;;;;;;;;4898624;29;20566;-41
2022/08/29 10:02:32;;;;;;;16.70;8.33;;;;;;;;;;4895059;29;20259;-42
2022/08/29 10:05:04;;;;;;;13.50;7.90;;;;;;;;;;4895478;29;20621;-42
2022/08/29 10:07:32;;;;;;;14.43;7.93;;;;;;;;;;4892586;29;20188;-42
2022/08/29 10:10:12;;;;;;;12.03;7.93;;;;;;;;;;4898926;29;20789;-42
2022/08/29 10:12:45;;;;;;;9.60;7.87;;;;;;;;;;4893616;29;20705;-42
2022/08/29 10:15:15;;;;;;;8.80;6.87;;;;;;;;;;4894464;29;20332;-42
2022/08/29 10:20:45;;;;;;;10.10;7.17;;;;;;;;;;4896481;29;20480;-42
2022/08/29 10:23:30;;;;;;;10.60;6.97;;;;;;;;;;4898237;29;20482;-42
2022/08/29 10:26:00;;;;;;;11.03;7.20;;;;;;;;;;4894102;29;20426;-42
2022/08/29 10:28:34;;;;;;;9.67;7.37;;;;;;;;;;4892497;29;20190;-42
2022/08/29 10:31:00;;;;;;;12.67;8.00;;;;;;;;;;4895497;29;20211;-42
2022/08/29 10:33:49;;;;;;;11.13;8.20;;;;;;;;;;4894951;29;20588;-42
2022/08/29 10:36:25;;;;;;;11.53;6.40;;;;;;;;;;4895608;28;20208;-42
2022/08/29 10:38:56;;;;;;;12.87;7.07;;;;;;;;;;4895034;29;20171;-42
2022/08/29 10:41:42;;;;;;;17.83;8.70;;;;;;;;;;4896663;29;20219;-42
2022/08/29 10:44:08;;;;;;;9.83;7.03;;;;;;;;;;4897516;28;20180;-42
2022/08/29 10:46:34;;;;;;;12.80;7.57;;;;;;;;;;4894321;29;20740;-42
2022/08/29 10:49:12;;;;;;;10.10;7.87;;;;;;;;;;4895690;29;20322;-42
2022/08/29 10:51:45;;;;;;;10.53;6.87;;;;;;;;;;4890362;29;20484;-42
2022/08/29 10:54:11;;;;;;;7.13;6.27;;;;;;;;;;4888132;29;20259;-42
2022/08/29 10:56:40;;;;;;;8.80;6.60;;;;;;;;;;4891014;29;20554;-42
2022/08/29 10:59:12;;;;;;;9.57;6.70;;;;;;;;;;4895092;29;20549;-41
2022/08/29 11:01:40;;;;;;;7.97;5.60;;;;;;;;;;4894134;29;20356;-42
2022/08/29 11:04:16;;;;;;;9.37;5.77;;;;;;;;;;4895329;29;20271;-42
2022/08/29 11:07:03;;;;;;;7.67;6.00;;;;;;;;;;4895683;29;20176;-41
2022/08/29 11:09:29;;;;;;;8.93;6.40;;;;;;;;;;4900945;29;20802;-41
2022/08/29 11:12:03;;;;;;;11.30;6.50;;;;;;;;;;4896352;29;20801;-41
2022/08/29 11:14:35;;;;;;;8.00;5.87;;;;;;;;;;4898629;29;20276;-41
2022/08/29 11:17:03;;;;;;;9.27;5.60;;;;;;;;;;4899482;29;20183;-41
2022/08/29 11:19:40;;;;;;;10.50;6.37;;;;;;;;;;4898079;29;20883;-41
2022/08/29 11:22:09;;;;;;;8.50;6.13;;;;;;;;;;4895569;29;20618;-41
2022/08/29 11:24:36;;;;;;;6.87;5.80;;;;;;;;;;4893617;29;20270;-44
2022/08/29 11:27:09;;;;;;;7.60;5.07;;;;;;;;;;4895300;29;20172;-44
2022/08/29 11:29:56;;;;;;;9.07;4.90;;;;;;;;;;4897931;28;20498;-44
2022/08/29 11:32:31;;;;;;;6.17;4.40;;;;;;;;;;4896501;29;20705;-43
2022/08/29 11:35:10;;;;;;;7.77;4.90;;;;;;;;;;4895421;29;20176;-43
2022/08/29 11:38:02;;;;;;;6.00;4.50;;;;;;;;;;4893184;29;20179;-44
2022/08/29 11:40:34;;;;;;;6.97;4.70;;;;;;;;;;4901222;29;20525;-44
2022/08/29 11:43:01;;;;;;;5.53;4.37;;;;;;;;;;4895413;29;20624;-44
2022/08/29 11:45:34;;;;;;;4.33;3.93;;;;;;;;;;4898384;29;20181;-43
2022/08/29 11:48:09;;;;;;;5.27;3.60;;;;;;;;;;4897410;29;20721;-44
2022/08/29 11:50:36;;;;;;;6.07;3.70;;;;;;;;;;4895218;29;20207;-43
2022/08/29 11:53:12;;;;;;;6.07;4.57;;;;;;;;;;4895160;29;20179;-44
2022/08/29 11:55:38;;;;;;;4.50;4.00;;;;;;;;;;4897371;29;20186;-44
2022/08/29 11:58:10;;;;;;;7.20;4.83;;;;;;;;;;4895124;29;20656;-44
2022/08/29 12:00:40;;;;;;;5.70;4.50;;;;;;;;;;4893715;29;20255;-44
2022/08/29 12:03:26;;;;;;;5.30;4.13;;;;;;;;;;4897449;29;20307;-44
2022/08/29 12:06:03;;;;;;;4.33;3.70;;;;;;;;;;4895425;29;20176;-44
2022/08/29 12:08:39;;;;;;;5.43;3.83;;;;;;;;;;4894482;29;20177;-44
2022/08/29 12:11:06;;;;;;;4.20;3.63;;;;;;;;;;4889776;29;20211;-44
2022/08/29 12:13:47;;;;;;;4.20;3.73;;;;;;;;;;4897562;29;20180;-41
2022/08/29 12:16:18;;;;;;;5.47;3.73;;;;;;;;;;4892993;29;20499;-41
2022/08/29 12:18:45;;;;;;;7.03;4.47;;;;;;;;;;4894066;29;20479;-41
2022/08/29 12:21:35;;;;;;;6.50;4.03;;;;;;;;;;4895475;28;20486;-42
2022/08/29 12:24:01;;;;;;;5.77;3.90;;;;;;;;;;4900812;28;20360;-41
2022/08/29 12:26:39;;;;;;;6.57;3.80;;;;;;;;;;4896208;29;20738;-41
2022/08/29 12:29:06;;;;;;;8.70;5.00;;;;;;;;;;4894459;29;20795;-41
2022/08/29 12:31:34;;;;;;;5.47;4.80;;;;;;;;;;4894099;28;21066;-41
2022/08/29 12:34:07;;;;;;;4.97;4.33;;;;;;;;;;4894268;29;21328;-41
2022/08/29 12:36:46;;;;;;;6.80;4.13;;;;;;;;;;4897812;29;20172;-41
2022/08/29 12:39:12;;;;;;;7.07;4.33;;;;;;;;;;4899472;29;20176;-41
2022/08/29 12:41:45;;;;;;;7.00;3.83;;;;;;;;;;4901774;28;20177;-44
2022/08/29 12:44:15;;;;;;;6.20;3.83;;;;;;;;;;4898427;29;20216;-42
2022/08/29 12:46:43;;;;;;;5.60;3.70;;;;;;;;;;4899359;29;20188;-42
2022/08/29 12:49:09;;;;;;;5.03;3.43;;;;;;;;;;4897953;29;20657;-41
2022/08/29 12:51:37;;;;;;;6.90;3.60;;;;;;;;;;4897909;29;20736;-42
2022/08/29 12:54:04;;;;;;;6.00;3.50;;;;;;;;;;4898193;29;20188;-42
2022/08/29 12:56:31;;;;;;;6.03;3.50;;;;;;;;;;4898623;29;20295;-42
2022/08/29 12:58:59;;;;;;;5.30;3.17;;;;;;;;;;4901534;29;20180;-42
2022/08/29 13:01:25;;;;;;;3.90;3.30;;;;;;;;;;4900172;29;20172;-43
2022/08/29 13:03:55;;;;;;;3.20;2.90;;;;;;;;;;4895695;29;20549;-43
2022/08/29 13:06:22;;;;;;;3.57;2.53;;;;;;;;;;4893483;29;20172;-42
2022/08/29 13:08:48;;;;;;;3.83;2.90;;;;;;;;;;4897458;29;20647;-42
2022/08/29 13:11:18;;;;;;;4.50;3.17;;;;;;;;;;4900377;29;20309;-43
2022/08/29 13:13:45;;;;;;;4.80;2.87;;;;;;;;;;4897807;29;20180;-42
2022/08/29 13:16:22;;;;;;;6.67;3.20;;;;;;;;;;4897275;29;20626;-42
2022/08/29 13:18:48;;;;;;;3.50;2.90;;;;;;;;;;4895468;29;20457;-43
2022/08/29 13:21:22;;;;;;;5.83;3.20;;;;;;;;;;4900231;29;21220;-42
2022/08/29 13:23:57;;;;;;;2.77;2.47;;;;;;;;;;4900078;29;20503;-42
2022/08/29 13:26:26;;;;;;;6.40;2.50;;;;;;;;;;4897814;29;20824;-43
2022/08/29 13:28:52;;;;;;;2.47;2.27;;;;;;;;;;4897321;29;20643;-42
2022/08/29 13:31:20;;;;;;;3.97;2.60;;;;;;;;;;4899526;29;20809;-41
2022/08/29 13:33:46;;;;;;;6.43;2.90;;;;;;;;;;4899888;29;20719;-43
2022/08/29 13:36:27;;;;;;;5.47;2.63;;;;;;;;;;4900423;29;20619;-42
2022/08/29 13:39:12;;;;;;;2.83;2.40;;;;;;;;;;4896267;29;20634;-43
2022/08/29 13:41:38;;;;;;;4.67;2.70;;;;;;;;;;4899623;29;20187;-41
2022/08/29 13:44:04;;;;;;;3.47;2.80;;;;;;;;;;4898644;29;20189;-42
2022/08/29 13:46:30;;;;;;;4.57;2.60;;;;;;;;;;4898586;29;20237;-42
2022/08/29 13:48:58;;;;;;;4.03;2.70;;;;;;;;;;4896811;29;20358;-42
2022/08/29 13:51:24;;;;;;;5.53;3.00;;;;;;;;;;4891114;28;20245;-42
2022/08/29 13:53:51;;;;;;;5.30;3.00;;;;;;;;;;4899096;29;20187;-42
2022/08/29 13:56:20;;;;;;;4.50;2.70;;;;;;;;;;4899697;29;20180;-41
2022/08/29 13:58:46;;;;;;;3.10;2.70;;;;;;;;;;4898294;29;20188;-41
2022/08/29 14:01:12;;;;;;;3.63;2.80;;;;;;;;;;4898018;29;20169;-42
2022/08/29 14:03:39;;;;;;;4.50;2.70;;;;;;;;;;4898022;29;20177;-42
2022/08/29 14:06:05;;;;;;;4.40;2.87;;;;;;;;;;4898250;29;20579;-42
2022/08/29 14:08:33;;;;;;;3.73;2.80;;;;;;;;;;4899786;29;21124;-42
2022/08/29 14:10:59;;;;;;;3.50;2.93;;;;;;;;;;4899714;29;20301;-42
2022/08/29 14:13:26;;;;;;;4.27;2.57;;;;;;;;;;4900456;28;20199;-42
2022/08/29 14:15:53;;;;;;;4.20;2.50;;;;;;;;;;4895334;28;20313;-42
2022/08/29 14:18:19;;;;;;;4.90;2.70;;;;;;;;;;4893940;29;20176;-42
2022/08/29 14:20:45;;;;;;;3.87;2.93;;;;;;;;;;4902993;29;20173;-42
2022/08/29 14:23:11;;;;;;;4.37;2.70;;;;;;;;;;4900670;29;20492;-42
2022/08/29 14:25:37;;;;;;;4.17;2.97;;;;;;;;;;4897725;29;20744;-42
2022/08/29 14:28:04;;;;;;;4.27;2.80;;;;;;;;;;4898112;29;20926;-42
2022/08/29 14:30:30;;;;;;;4.90;2.97;;;;;;;;;;4897309;29;21518;-42
2022/08/29 14:32:57;;;;;;;3.80;2.73;;;;;;;;;;4901387;29;20297;-42
2022/08/29 14:35:23;;;;;;;5.43;3.07;;;;;;;;;;4899618;29;20173;-42
2022/08/29 14:37:49;;;;;;;4.07;2.53;;;;;;;;;;4897947;28;20520;-43
2022/08/29 14:40:15;;;;;;;6.03;3.00;;;;;;;;;;4896035;28;20676;-42